CST,Max TemperatureF,Mean TemperatureF,Min TemperatureF,Max Dew PointF,MeanDew PointF,Min DewpointF,Max Humidity, Mean Humidity, Min Humidity, Max Sea Level PressureIn, Mean Sea Level PressureIn, Min Sea Level PressureIn, Max VisibilityMiles, Mean VisibilityMiles, Min VisibilityMiles, Max Wind SpeedMPH, Mean Wind SpeedMPH, Max Gust SpeedMPH,PrecipitationIn, CloudCover, Events, WindDirDegrees
2013-11-1,73,60,48,54,50,45,100,80,41,29.90,29.82,29.78,10,10,7,14,4,,0.00,1,,247
2013-11-2,60,51,41,46,43,39,100,77,55,30.21,30.04,29.90,10,10,10,13,5,,0.00,1,,301
2013-11-3,60,48,35,43,38,36,100,80,42,30.32,30.24,30.17,10,8,0,7,1,,0.00,0,,65
2013-11-4,66,54,42,48,43,39,87,74,46,30.29,30.24,30.19,10,10,10,10,1,,0.00,4,,148
2013-11-5,71,62,53,54,48,45,77,66,50,30.30,30.22,30.14,10,10,10,12,4,,0.00,4,,132
2013-11-6,62,54,46,63,51,41,100,79,59,30.27,30.12,30.05,10,8,3,17,9,,0.00,6,Rain,146
2013-11-7,55,46,35,41,37,34,100,77,44,30.41,30.35,30.29,10,10,10,12,7,,0.00,1,,331
2013-11-8,62,46,30,43,36,30,100,78,32,30.40,30.31,30.22,10,8,0,5,1,,0.00,3,,130
2013-11-9,62,50,39,46,41,37,93,80,48,30.29,30.24,30.20,10,10,10,8,1,,0.00,3,,148
2013-11-10,66,54,42,48,42,37,100,75,35,30.36,30.30,30.27,10,10,7,10,2,,0.00,1,,27
2013-11-11,71,54,37,48,41,36,100,73,35,30.31,30.25,30.17,10,10,10,7,1,,0.00,2,,217
2013-11-12,55,42,28,48,31,21,82,70,42,30.68,30.51,30.26,10,10,10,21,14,25,0.00,5,,1
2013-11-13,48,37,26,27,22,19,93,68,32,30.72,30.61,30.45,10,10,10,6,4,,0.00,0,,18
2013-11-14,57,40,23,27,23,19,100,63,23,30.44,30.33,30.16,10,10,10,8,2,,0.00,2,,147
2013-11-15,60,50,41,54,42,27,100,78,49,30.17,30.11,30.03,10,10,9,8,3,,0.00,6,Rain,131
2013-11-16,69,60,53,64,58,52,100,93,82,30.05,29.97,29.85,10,10,8,16,7,,0.00,8,,141
2013-11-17,78,69,60,72,64,36,100,82,37,30.00,29.80,29.70,10,9,2,17,12,30,0.00,6,Rain,183
2013-11-18,64,54,44,39,34,27,76,48,34,30.27,30.14,30.01,10,10,10,15,7,,0.00,1,,340
2013-11-19,53,47,37,30,28,25,75,50,37,30.31,30.24,30.18,10,10,10,10,5,,0.00,3,,36
2013-11-20,64,50,35,41,33,28,75,63,37,30.19,30.14,30.07,10,10,10,8,3,,0.00,2,,105
2013-11-21,66,58,51,61,51,43,100,79,64,30.20,30.16,30.12,10,9,4,10,7,,0.00,5,Rain,140
2013-11-22,60,51,42,61,53,39,100,95,87,30.40,30.27,30.17,10,7,2,17,8,,0.00,8,Rain,18
2013-11-23,44,37,28,39,31,18,93,74,42,30.59,30.47,30.39,10,10,10,18,11,,0.00,6,,5
2013-11-24,33,27,21,18,16,12,74,62,48,30.67,30.58,30.44,10,10,10,15,10,,0.00,2,,20
2013-11-25,35,32,30,36,25,18,100,75,55,30.41,30.31,30.16,10,9,6,6,3,,0.00,7,Rain,50
2013-11-26,39,36,33,37,33,21,100,89,60,30.15,30.06,29.97,10,8,4,17,7,,0.00,7,Rain,360
2013-11-27,33,27,21,21,17,14,93,65,48,30.40,30.29,30.16,10,10,10,18,11,,0.00,1,,335
2013-11-28,46,32,17,25,20,16,93,72,37,30.49,30.43,30.38,10,10,10,12,2,,0.00,2,,163
2013-11-29,55,40,24,30,27,23,93,74,38,30.56,30.50,30.44,10,10,10,6,1,,0.00,0,,116
2013-11-30,55,40,24,30,28,25,100,71,36,30.44,30.38,30.24,10,10,10,9,2,,0.00,2,,152